createdAt,value
2022-08-10T00:01:41.329Z,82.65
2022-08-10T00:04:08.746Z,83.67
2022-08-10T00:06:38.367Z,83.56
2022-08-10T00:09:06.096Z,83.88
2022-08-10T00:11:33.729Z,83.52
2022-08-10T00:14:01.158Z,83.79
2022-08-10T00:16:28.792Z,86.19
2022-08-10T00:18:56.244Z,87.17
2022-08-10T00:21:23.750Z,87.09
2022-08-10T00:23:54.974Z,88.45
2022-08-10T00:26:22.363Z,88.42
2022-08-10T00:28:49.762Z,88.81
2022-08-10T00:31:17.220Z,87.36
2022-08-10T00:33:44.650Z,88.13
2022-08-10T00:36:12.187Z,87.13
2022-08-10T00:38:39.721Z,85.96
2022-08-10T00:41:07.146Z,86.02
2022-08-10T00:43:34.684Z,84.69
2022-08-10T00:46:02.119Z,83.43
2022-08-10T00:48:30.602Z,82.75
2022-08-10T00:51:02.002Z,81.81
2022-08-10T00:53:30.434Z,81.72
2022-08-10T00:56:35.836Z,82.97
2022-08-10T00:58:46.524Z,85.12
2022-08-10T01:02:08.857Z,85.00
2022-08-10T01:04:36.778Z,84.82
2022-08-10T01:07:21.856Z,86.09
2022-08-10T01:09:59.743Z,84.92
2022-08-10T01:12:50.472Z,83.35
2022-08-10T01:15:37.192Z,83.49
2022-08-10T01:18:17.314Z,84.03
2022-08-10T01:20:56.640Z,83.16
2022-08-10T01:23:51.193Z,81.70
2022-08-10T01:26:40.686Z,80.78
2022-08-10T01:29:08.472Z,80.34
2022-08-10T01:31:42.829Z,80.88
2022-08-10T01:34:18.253Z,80.23
2022-08-10T01:36:50.156Z,80.97
2022-08-10T01:39:25.574Z,81.62
2022-08-10T01:41:58.295Z,81.04
2022-08-10T01:44:32.355Z,82.06
2022-08-10T01:47:24.179Z,82.88
2022-08-10T01:49:56.761Z,82.63
2022-08-10T01:52:27.129Z,82.82
2022-08-10T01:54:56.722Z,82.21
2022-08-10T01:57:27.227Z,82.23
2022-08-10T02:00:01.990Z,81.29
2022-08-10T02:02:31.717Z,79.56
2022-08-10T02:05:02.378Z,78.23
2022-08-10T02:07:32.710Z,77.84
2022-08-10T02:10:20.626Z,77.30
2022-08-10T02:12:50.090Z,77.74
2022-08-10T02:15:20.510Z,78.58
2022-08-10T02:17:58.153Z,79.98
2022-08-10T02:20:35.809Z,78.78
2022-08-10T02:23:08.807Z,79.34
2022-08-10T02:25:41.327Z,78.58
2022-08-10T02:28:29.488Z,80.16
2022-08-10T02:31:12.008Z,81.19
2022-08-10T02:33:56.484Z,81.78
2022-08-10T02:36:29.630Z,80.72
2022-08-10T02:39:01.173Z,78.35
2022-08-10T02:42:18.086Z,78.65
2022-08-10T02:45:21.568Z,78.25
2022-08-10T02:47:52.892Z,78.57
2022-08-10T02:50:28.077Z,79.94
2022-08-10T02:53:05.268Z,80.13
2022-08-10T02:55:40.878Z,81.42
2022-08-10T02:58:17.756Z,79.55
2022-08-10T03:00:53.608Z,78.66
2022-08-10T03:03:26.812Z,80.03
2022-08-10T03:06:00.764Z,81.12
2022-08-10T03:08:34.119Z,80.49
2022-08-10T03:11:05.204Z,80.52
2022-08-10T03:13:35.663Z,79.41
2022-08-10T03:16:04.502Z,78.86
2022-08-10T03:18:33.451Z,79.28
2022-08-10T03:21:02.097Z,82.05
2022-08-10T03:23:30.305Z,79.79
2022-08-10T03:26:01.137Z,80.03
2022-08-10T03:28:32.235Z,80.34
2022-08-10T03:31:01.607Z,83.31
2022-08-10T03:33:33.308Z,82.99
2022-08-10T03:36:43.890Z,83.48
2022-08-10T03:38:51.937Z,84.37
2022-08-10T03:41:29.882Z,83.55
2022-08-10T03:44:06.261Z,83.60
2022-08-10T03:46:37.660Z,82.11
2022-08-10T03:49:06.241Z,80.64
2022-08-10T03:51:35.635Z,80.31
2022-08-10T03:54:07.343Z,80.64
2022-08-10T03:56:37.650Z,81.17
2022-08-10T03:59:07.643Z,82.74
2022-08-10T04:02:47.140Z,82.99
2022-08-10T04:04:25.070Z,81.73
2022-08-10T04:06:56.595Z,82.08
2022-08-10T04:09:53.453Z,80.75
2022-08-10T04:12:21.385Z,81.01
2022-08-10T04:14:51.327Z,81.46
2022-08-10T04:18:02.919Z,79.78
2022-08-10T04:20:39.839Z,78.45
2022-08-10T04:23:12.366Z,76.81
2022-08-10T04:25:41.109Z,75.86
2022-08-10T04:28:09.363Z,75.73
2022-08-10T04:30:37.996Z,75.43
2022-08-10T04:33:08.142Z,75.63
2022-08-10T04:35:37.249Z,76.11
2022-08-10T04:38:07.080Z,76.26
2022-08-10T04:40:34.567Z,76.04
2022-08-10T04:43:13.374Z,77.77
2022-08-10T04:45:49.012Z,77.22
2022-08-10T04:48:39.955Z,78.74
2022-08-10T04:51:15.271Z,78.63
2022-08-10T04:54:05.990Z,79.02
2022-08-10T04:56:38.960Z,78.27
2022-08-10T04:59:08.152Z,76.48
2022-08-10T05:02:21.449Z,76.65
2022-08-10T05:04:36.054Z,76.32
2022-08-10T05:07:08.154Z,76.02
2022-08-10T05:10:02.949Z,77.40
2022-08-10T05:12:25.019Z,75.13
2022-08-10T05:14:54.661Z,74.23
2022-08-10T05:17:23.743Z,76.08
2022-08-10T05:20:04.724Z,76.10
2022-08-10T05:22:42.876Z,74.55
2022-08-10T05:25:15.491Z,75.79
2022-08-10T05:27:44.341Z,77.47
2022-08-10T05:30:15.148Z,75.51
2022-08-10T05:32:57.164Z,74.22
2022-08-10T05:35:52.395Z,73.33
2022-08-10T05:38:18.534Z,75.02
2022-08-10T05:40:48.035Z,74.28
2022-08-10T05:43:20.697Z,74.45
2022-08-10T05:46:19.687Z,71.74
2022-08-10T05:48:58.145Z,72.40
2022-08-10T05:51:26.493Z,71.75
2022-08-10T05:54:03.163Z,71.19
2022-08-10T05:56:54.698Z,72.06
2022-08-10T06:00:32.441Z,71.35
2022-08-10T06:02:32.782Z,72.77
2022-08-10T06:05:19.469Z,70.94
2022-08-10T06:07:53.178Z,70.41
2022-08-10T06:10:31.551Z,69.70
2022-08-10T06:13:30.238Z,68.55
2022-08-10T06:16:05.841Z,68.62
2022-08-10T06:18:33.491Z,68.35
2022-08-10T06:21:02.595Z,67.84
2022-08-10T06:23:31.324Z,66.87
2022-08-10T06:26:11.375Z,66.25
2022-08-10T06:29:03.288Z,66.14
2022-08-10T06:31:47.956Z,65.70
2022-08-10T06:34:42.158Z,65.39
2022-08-10T06:37:12.895Z,65.66
2022-08-10T06:39:40.435Z,66.06
2022-08-10T06:42:19.671Z,64.32
2022-08-10T06:45:14.716Z,65.27
2022-08-10T06:47:49.241Z,64.45
2022-08-10T06:50:58.826Z,62.88
2022-08-10T06:53:52.230Z,63.84
2022-08-10T06:56:35.887Z,64.95
2022-08-10T06:59:21.837Z,65.44
2022-08-10T07:01:54.489Z,67.11
2022-08-10T07:04:32.754Z,66.77
2022-08-10T07:07:06.797Z,66.03
2022-08-10T07:09:40.266Z,66.76
2022-08-10T07:12:09.795Z,65.38
2022-08-10T07:14:41.013Z,61.92
2022-08-10T07:17:16.821Z,61.65
2022-08-10T07:19:49.864Z,60.23
2022-08-10T07:23:01.188Z,59.04
2022-08-10T07:25:13.253Z,59.67
2022-08-10T07:28:00.901Z,60.89
2022-08-10T07:30:38.221Z,59.57
2022-08-10T07:33:07.527Z,60.15
2022-08-10T07:35:42.196Z,59.32
2022-08-10T07:38:17.535Z,58.96
2022-08-10T07:40:46.951Z,58.04
2022-08-10T07:43:17.019Z,58.23
2022-08-10T07:45:46.776Z,57.46
2022-08-10T07:48:30.267Z,56.12
2022-08-10T07:51:02.076Z,56.31
2022-08-10T07:53:38.690Z,55.29
2022-08-10T07:56:21.168Z,54.47
2022-08-10T07:59:01.835Z,54.82
2022-08-10T08:01:33.637Z,54.51
2022-08-10T08:04:05.479Z,54.94
2022-08-10T08:06:42.314Z,54.57
2022-08-10T08:09:11.145Z,54.33
2022-08-10T08:11:43.255Z,54.98
2022-08-10T08:14:12.998Z,56.92
2022-08-10T08:16:44.313Z,57.93
2022-08-10T08:19:35.497Z,57.16
2022-08-10T08:24:15.036Z,56.30
2022-08-10T08:24:52.256Z,56.17
2022-08-10T08:27:21.802Z,56.83
2022-08-10T08:29:50.892Z,57.28
2022-08-10T08:32:22.732Z,57.39
2022-08-10T08:34:55.912Z,55.54
2022-08-10T08:38:32.172Z,55.66
2022-08-10T08:40:29.488Z,54.54
2022-08-10T08:43:22.410Z,52.60
2022-08-10T08:46:20.565Z,53.18
2022-08-10T08:49:06.460Z,52.15
2022-08-10T08:52:09.696Z,53.70
2022-08-10T08:55:52.412Z,49.63
2022-08-10T08:58:23.852Z,48.44
2022-08-10T09:01:40.418Z,49.05
2022-08-10T09:04:36.679Z,45.33
2022-08-10T09:07:59.922Z,46.87
2022-08-10T09:10:22.373Z,48.16
2022-08-10T09:13:05.242Z,48.19
2022-08-10T09:15:44.899Z,49.58
2022-08-10T09:18:47.629Z,48.69
2022-08-10T09:21:28.249Z,49.71
2022-08-10T09:24:21.969Z,47.93
2022-08-10T09:26:52.690Z,47.75
2022-08-10T09:29:27.954Z,47.32
2022-08-10T09:36:16.682Z,46.58
2022-08-10T09:36:19.621Z,46.41
2022-08-10T09:38:58.525Z,45.30
2022-08-10T09:41:41.798Z,44.76
2022-08-10T09:44:21.556Z,44.30
2022-08-10T09:47:05.964Z,44.20
2022-08-10T09:50:05.355Z,42.90
2022-08-10T09:53:10.296Z,42.32
2022-08-10T09:56:18.117Z,41.43
2022-08-10T09:58:47.075Z,38.76
2022-08-10T10:02:02.651Z,38.90
2022-08-10T10:04:50.248Z,38.45
2022-08-10T10:07:25.923Z,38.62
2022-08-10T10:10:33.251Z,37.84
2022-08-10T10:13:09.734Z,37.58
2022-08-10T10:16:18.269Z,37.69
2022-08-10T10:19:01.897Z,38.11
2022-08-10T10:21:54.153Z,37.59
2022-08-10T10:24:51.410Z,38.02
2022-08-10T10:27:30.777Z,37.83
2022-08-10T10:30:12.562Z,37.34
2022-08-10T10:33:00.754Z,37.24
2022-08-10T10:35:44.473Z,37.81
2022-08-10T10:38:13.911Z,38.78
2022-08-10T10:40:48.995Z,39.64
2022-08-10T10:43:42.608Z,39.12
2022-08-10T10:47:11.622Z,40.72
2022-08-10T10:49:50.889Z,41.08
2022-08-10T10:52:51.687Z,41.31
2022-08-10T10:56:13.549Z,41.76
2022-08-10T10:58:59.048Z,41.95
2022-08-10T11:01:39.193Z,41.06
2022-08-10T11:04:15.360Z,40.83
2022-08-10T11:07:10.562Z,40.52
2022-08-10T11:10:05.637Z,40.16
2022-08-10T11:12:50.914Z,40.30
2022-08-10T11:15:36.403Z,41.22
2022-08-10T11:18:35.743Z,41.92
2022-08-10T11:21:21.730Z,42.84
2022-08-10T11:24:48.979Z,43.45
2022-08-10T11:27:21.843Z,44.59
2022-08-10T11:30:06.689Z,45.01
2022-08-10T11:32:52.627Z,44.73
2022-08-10T11:35:34.194Z,44.98
2022-08-10T11:38:52.239Z,45.30
2022-08-10T11:42:09.401Z,47.69
2022-08-10T11:44:34.410Z,48.33
2022-08-10T11:47:04.666Z,49.99
2022-08-10T11:49:37.904Z,50.98
2022-08-10T11:52:33.602Z,51.76
2022-08-10T11:55:11.056Z,52.17
2022-08-10T11:57:54.273Z,51.01
2022-08-10T12:00:29.608Z,49.96
2022-08-10T12:03:04.271Z,49.44
2022-08-10T12:05:52.632Z,46.95
2022-08-10T12:10:04.950Z,47.15
2022-08-10T12:11:24.080Z,45.20
2022-08-10T12:14:20.364Z,44.13
2022-08-10T12:16:58.472Z,45.50
2022-08-10T12:20:01.109Z,44.14
2022-08-10T12:22:36.396Z,44.96
2022-08-10T12:25:11.490Z,44.90
2022-08-10T12:28:09.739Z,45.69
2022-08-10T12:30:46.531Z,42.85
2022-08-10T12:33:29.221Z,41.73
2022-08-10T12:36:22.373Z,40.93
2022-08-10T12:39:02.454Z,43.09
2022-08-10T12:41:43.573Z,39.29
2022-08-10T12:44:41.307Z,40.09
2022-08-10T12:47:14.278Z,39.54
2022-08-10T12:50:30.709Z,39.29
2022-08-10T12:53:41.303Z,37.18
2022-08-10T12:56:08.862Z,37.62
2022-08-10T12:59:00.151Z,35.95
2022-08-10T13:02:10.642Z,35.22
2022-08-10T13:04:28.765Z,35.61
2022-08-10T13:07:00.973Z,36.68
2022-08-10T13:09:29.258Z,36.43
2022-08-10T13:12:35.974Z,37.12
2022-08-10T13:14:55.202Z,38.53
2022-08-10T13:17:38.721Z,40.66
2022-08-10T13:20:39.069Z,40.19
2022-08-10T13:23:14.835Z,41.02
2022-08-10T13:25:48.277Z,44.35
2022-08-10T13:28:35.894Z,44.63
2022-08-10T13:31:11.367Z,46.15
2022-08-10T13:34:38.785Z,44.70
2022-08-10T13:36:43.029Z,44.12
2022-08-10T13:39:12.897Z,42.92
2022-08-10T13:41:44.257Z,43.33
2022-08-10T13:44:15.346Z,43.00
2022-08-10T13:46:51.390Z,43.25
2022-08-10T13:49:21.816Z,43.43
2022-08-10T13:51:57.131Z,43.16
2022-08-10T13:54:37.310Z,42.28
2022-08-10T13:57:06.035Z,42.42
2022-08-10T14:00:36.477Z,43.59
2022-08-10T14:02:49.131Z,42.70
2022-08-10T14:05:27.159Z,41.71
2022-08-10T14:08:01.130Z,44.37
2022-08-10T14:11:04.073Z,43.94
2022-08-10T14:13:26.734Z,43.48
2022-08-10T14:15:56.732Z,45.70
2022-08-10T14:18:25.824Z,45.47
2022-08-10T14:20:57.497Z,45.07
2022-08-10T14:23:25.054Z,45.91
2022-08-10T14:25:54.088Z,46.66
2022-08-10T14:28:56.298Z,48.21
2022-08-10T14:31:29.153Z,48.18
2022-08-10T14:33:59.587Z,48.07
2022-08-10T14:36:58.589Z,47.46
2022-08-10T14:39:31.317Z,48.36
2022-08-10T14:42:15.777Z,48.35
2022-08-10T14:45:00.202Z,48.84
2022-08-10T14:47:53.745Z,49.77
2022-08-10T14:50:32.239Z,50.58
2022-08-10T14:53:09.444Z,50.41
2022-08-10T14:55:58.895Z,51.48
2022-08-10T14:58:38.679Z,50.84
2022-08-10T15:01:08.624Z,52.31
2022-08-10T15:04:01.608Z,51.13
2022-08-10T15:06:32.107Z,51.82
2022-08-10T15:09:20.245Z,52.11
2022-08-10T15:12:14.079Z,52.91
2022-08-10T15:14:47.027Z,52.63
2022-08-10T15:17:26.437Z,52.79
2022-08-10T15:20:04.711Z,53.62
2022-08-10T15:22:49.848Z,53.99
2022-08-10T15:25:24.310Z,54.13
2022-08-10T15:28:06.389Z,54.27
2022-08-10T15:30:40.553Z,54.76
2022-08-10T15:34:03.820Z,54.85
2022-08-10T15:36:38.933Z,55.02
2022-08-10T15:40:25.089Z,54.91
2022-08-10T15:42:08.955Z,55.15
2022-08-10T15:44:43.311Z,56.02
2022-08-10T15:47:24.658Z,56.68
2022-08-10T15:50:03.203Z,55.84
2022-08-10T15:53:01.837Z,56.04
2022-08-10T15:55:41.744Z,56.62
2022-08-10T15:58:38.889Z,56.89
2022-08-10T16:02:14.098Z,57.89
2022-08-10T16:04:08.716Z,58.04
2022-08-10T16:06:44.836Z,58.39
2022-08-10T16:10:22.009Z,58.62
2022-08-10T16:12:29.707Z,58.46
2022-08-10T16:15:04.427Z,58.35
2022-08-10T16:17:54.778Z,57.33
2022-08-10T16:20:30.281Z,56.74
2022-08-10T16:23:02.959Z,57.04
2022-08-10T16:25:51.696Z,58.15
2022-08-10T16:28:23.647Z,58.07
2022-08-10T16:30:56.983Z,58.43
2022-08-10T16:33:54.322Z,58.18
2022-08-10T16:36:20.844Z,57.88
2022-08-10T16:38:50.659Z,58.67
2022-08-10T16:42:00.387Z,59.10
2022-08-10T16:44:11.397Z,59.77
2022-08-10T16:46:44.771Z,60.53
2022-08-10T16:49:15.541Z,60.99
2022-08-10T16:51:48.349Z,61.25
2022-08-10T16:54:27.568Z,62.06
2022-08-10T16:57:01.935Z,62.44
2022-08-10T16:59:34.236Z,62.65
2022-08-10T17:02:03.332Z,63.32
2022-08-10T17:04:33.523Z,63.31
2022-08-10T17:07:07.476Z,63.25
2022-08-10T17:09:37.778Z,63.97
2022-08-10T17:12:13.445Z,64.32
2022-08-10T17:14:43.628Z,63.86
2022-08-10T17:17:21.810Z,64.54
2022-08-10T17:19:51.018Z,64.60
2022-08-10T17:22:24.224Z,64.51
2022-08-10T17:25:21.157Z,64.66
2022-08-10T17:28:04.911Z,65.39
2022-08-10T17:30:46.173Z,65.87
2022-08-10T17:33:30.803Z,65.96
2022-08-10T17:36:03.668Z,66.40
2022-08-10T17:38:33.918Z,67.60
2022-08-10T17:41:12.431Z,67.17
2022-08-10T17:43:57.822Z,67.81
2022-08-10T17:46:38.718Z,67.55
2022-08-10T17:49:09.012Z,68.32
2022-08-10T17:51:39.611Z,68.11
2022-08-10T17:54:36.299Z,68.17
2022-08-10T17:57:12.546Z,68.30
2022-08-10T17:59:42.905Z,68.02
2022-08-10T18:02:14.947Z,68.98
2022-08-10T18:04:50.437Z,69.29
2022-08-10T18:07:22.299Z,69.38
2022-08-10T18:09:53.162Z,69.98
2022-08-10T18:12:36.291Z,70.26
2022-08-10T18:15:13.271Z,70.46
2022-08-10T18:17:46.335Z,70.46
2022-08-10T18:20:20.003Z,70.67
2022-08-10T18:22:57.651Z,70.83
2022-08-10T18:25:33.082Z,71.88
2022-08-10T18:28:05.002Z,70.86
2022-08-10T18:30:45.104Z,72.84
2022-08-10T18:33:14.546Z,71.21
2022-08-10T18:35:46.488Z,72.12
2022-08-10T18:38:16.712Z,74.10
2022-08-10T18:40:52.576Z,74.86
2022-08-10T18:44:06.915Z,74.96
2022-08-10T18:46:20.249Z,74.93
2022-08-10T18:48:54.940Z,74.98
2022-08-10T18:51:26.991Z,76.93
2022-08-10T18:54:05.301Z,75.67
2022-08-10T18:57:05.327Z,75.04
2022-08-10T18:59:34.144Z,77.01
2022-08-10T19:02:26.223Z,77.06
2022-08-10T19:05:30.552Z,78.50
2022-08-10T19:08:08.299Z,79.79
2022-08-10T19:11:09.216Z,80.87
2022-08-10T19:13:50.667Z,80.46
2022-08-10T19:16:19.474Z,81.12
2022-08-10T19:19:05.477Z,78.12
2022-08-10T19:22:02.279Z,79.27
2022-08-10T19:25:03.021Z,80.72
2022-08-10T19:27:59.438Z,80.45
2022-08-10T19:30:57.547Z,79.63
2022-08-10T19:33:44.289Z,80.69
2022-08-10T19:36:29.774Z,80.64
2022-08-10T19:39:17.952Z,80.70
2022-08-10T19:41:54.499Z,79.93
2022-08-10T19:44:32.019Z,80.15
2022-08-10T19:47:08.580Z,79.41
2022-08-10T19:49:47.384Z,80.33
2022-08-10T19:52:38.748Z,81.36
2022-08-10T19:55:17.726Z,81.16
2022-08-10T19:58:01.350Z,80.54
2022-08-10T20:00:41.177Z,81.72
2022-08-10T20:03:47.353Z,81.61
2022-08-10T20:06:24.170Z,81.76
2022-08-10T20:09:04.018Z,81.59
2022-08-10T20:11:56.843Z,82.41
2022-08-10T20:14:24.292Z,82.03
2022-08-10T20:17:01.432Z,82.15
2022-08-10T20:19:52.434Z,80.45
2022-08-10T20:22:33.869Z,81.13
2022-08-10T20:25:14.388Z,82.37
2022-08-10T20:28:00.922Z,80.30
2022-08-10T20:30:33.585Z,81.52
2022-08-10T20:33:09.876Z,81.14
2022-08-10T20:35:48.661Z,81.75
2022-08-10T20:38:43.556Z,81.04
2022-08-10T20:41:23.363Z,81.30
2022-08-10T20:44:08.988Z,81.51
2022-08-10T20:47:02.233Z,81.52
2022-08-10T20:50:01.352Z,81.02
2022-08-10T20:52:31.578Z,80.16
2022-08-10T20:55:02.637Z,80.18
2022-08-10T20:57:55.721Z,79.69
2022-08-10T21:00:42.684Z,79.28
2022-08-10T21:03:31.362Z,78.68
2022-08-10T21:06:31.699Z,78.45
2022-08-10T21:09:23.544Z,78.47
2022-08-10T21:12:05.993Z,78.79
2022-08-10T21:15:14.485Z,78.36
2022-08-10T21:17:55.031Z,78.11
2022-08-10T21:20:47.362Z,78.09
2022-08-10T21:23:17.967Z,77.23
2022-08-10T21:25:59.314Z,76.66
2022-08-10T21:28:53.057Z,76.30
2022-08-10T21:31:31.337Z,76.59
2022-08-10T21:34:19.447Z,76.24
2022-08-10T21:37:08.305Z,74.96
2022-08-10T21:39:56.412Z,74.70
2022-08-10T21:43:11.217Z,75.18
2022-08-10T21:46:10.796Z,74.78
2022-08-10T21:49:23.323Z,75.17
2022-08-10T21:52:37.292Z,75.39
2022-08-10T21:55:55.943Z,75.85
2022-08-10T21:58:52.201Z,76.61
2022-08-10T22:01:51.443Z,76.17
2022-08-10T22:04:40.142Z,76.11
2022-08-10T22:07:36.679Z,76.08
2022-08-10T22:10:26.268Z,75.87
2022-08-10T22:13:17.879Z,76.00
2022-08-10T22:16:11.987Z,75.62
2022-08-10T22:19:03.417Z,76.12
2022-08-10T22:22:28.291Z,75.32
2022-08-10T22:25:45.425Z,75.21
2022-08-10T22:28:38.548Z,74.70
2022-08-10T22:31:52.007Z,74.48
2022-08-10T22:35:00.196Z,74.94
2022-08-10T22:38:16.651Z,74.76
2022-08-10T22:41:05.555Z,74.51
2022-08-10T22:43:55.167Z,74.47
2022-08-10T22:46:46.334Z,73.74
2022-08-10T22:49:23.630Z,73.96
2022-08-10T22:52:03.496Z,73.93
2022-08-10T22:55:00.191Z,73.57
2022-08-10T22:57:46.213Z,73.61
2022-08-10T23:00:19.527Z,73.08
2022-08-10T23:03:22.664Z,73.55
2022-08-10T23:06:04.191Z,73.72
2022-08-10T23:08:45.499Z,74.01
2022-08-10T23:11:30.177Z,73.84
2022-08-10T23:14:04.207Z,74.63
2022-08-10T23:16:58.794Z,73.48
2022-08-10T23:19:30.092Z,73.36
2022-08-10T23:22:09.163Z,74.33
2022-08-10T23:24:43.229Z,73.41
2022-08-10T23:27:38.424Z,73.12
2022-08-10T23:30:10.856Z,73.23
2022-08-10T23:32:46.664Z,72.95
2022-08-10T23:36:31.339Z,72.50
2022-08-10T23:38:14.381Z,71.76
2022-08-10T23:40:48.219Z,71.21
2022-08-10T23:46:24.159Z,71.32
2022-08-10T23:48:58.508Z,70.86
2022-08-10T23:51:54.976Z,70.68
2022-08-10T23:54:25.834Z,70.53
2022-08-10T23:57:01.008Z,70.99
2022-08-10T23:59:31.886Z,70.18
